Time;durP1;ratioP1;P1;durP2;ratioP2;P2;SDS_P1;SDS_P2;PMS_P1;PMS_P2;Temp;Humidity;BMP_temperature;BMP_pressure;BME280_temperature;BME280_humidity;BME280_pressure;Samples;Min_cycle;Max_cycle;Signal;HPM_P1;HPM_P2
2022/05/26 00:01:12;;;;;;;4.63;3.28;;;;;;;7.52;70.34;96377.13;6294494;28;20075;-69
2022/05/26 00:04:17;;;;;;;4.38;3.08;;;;;;;7.40;70.65;96381.34;6294572;28;20057;-69
2022/05/26 00:07:23;;;;;;;5.13;3.17;;;;;;;7.38;70.83;96385.81;6294437;28;20040;-70
2022/05/26 00:10:27;;;;;;;5.28;3.58;;;;;;;7.45;70.35;96394.16;6298026;28;20052;-70
2022/05/26 00:13:29;;;;;;;4.60;2.72;;;;;;;7.50;70.27;96385.09;6299005;28;20048;-69
2022/05/26 00:16:36;;;;;;;4.20;3.25;;;;;;;7.50;70.41;96385.09;6298928;28;20044;-69
2022/05/26 00:19:38;;;;;;;6.55;3.42;;;;;;;7.54;70.33;96389.19;6298421;28;20371;-69
2022/05/26 00:22:44;;;;;;;5.65;2.72;;;;;;;7.51;70.12;96392.00;6297445;28;20519;-70
2022/05/26 00:25:46;;;;;;;3.92;2.63;;;;;;;7.48;70.19;96384.34;6298521;28;20082;-69
2022/05/26 00:28:52;;;;;;;5.93;3.17;;;;;;;7.47;70.55;96385.25;6298645;28;20052;-69
2022/05/26 00:31:54;;;;;;;3.40;2.90;;;;;;;7.47;70.59;96377.41;6298836;28;20127;-69
2022/05/26 00:34:58;;;;;;;4.60;2.67;;;;;;;7.62;69.99;96375.66;6298399;28;20388;-70
2022/05/26 00:38:00;;;;;;;5.97;2.97;;;;;;;7.55;69.98;96376.94;6298270;28;20477;-70
2022/05/26 00:41:07;;;;;;;3.20;2.90;;;;;;;7.48;70.55;96371.25;6298101;28;20084;-69
2022/05/26 00:44:12;;;;;;;4.72;3.25;;;;;;;7.39;70.63;96377.03;6298208;28;20075;-69
2022/05/26 00:47:23;;;;;;;3.80;2.78;;;;;;;7.34;70.88;96389.56;6298090;28;20053;-69
2022/05/26 00:50:31;;;;;;;6.38;3.90;;;;;;;7.32;71.03;96397.50;6298121;28;20072;-69
2022/05/26 00:53:43;;;;;;;4.55;3.22;;;;;;;7.40;70.70;96405.72;6297836;28;20078;-69
2022/05/26 00:56:54;;;;;;;3.55;3.10;;;;;;;7.31;70.89;96405.44;6298037;28;20119;-70
2022/05/26 01:00:06;;;;;;;3.83;3.28;;;;;;;7.25;71.05;96405.81;6297736;28;20047;-69
2022/05/26 01:03:29;;;;;;;4.00;3.30;;;;;;;7.33;70.74;96400.94;6295817;28;20563;-69
2022/05/26 01:06:46;;;;;;;4.22;3.28;;;;;;;7.41;70.76;96393.47;6297651;28;20052;-70
2022/05/26 01:09:53;;;;;;;4.30;3.42;;;;;;;7.47;70.29;96403.56;6297760;28;20041;-69
2022/05/26 01:12:55;;;;;;;5.32;3.35;;;;;;;7.52;70.38;96398.91;6296894;28;20080;-68
2022/05/26 01:16:39;;;;;;;4.82;2.72;;;;;;;7.51;70.36;96396.41;6297483;28;20047;-69
2022/05/26 01:20:03;;;;;;;7.25;4.63;;;;;;;7.49;70.23;96399.09;6291892;28;20059;-68
2022/05/26 01:23:17;;;;;;;9.48;4.95;;;;;;;7.45;70.29;96396.78;6297029;28;20040;-70
2022/05/26 01:27:02;;;;;;;7.60;4.60;;;;;;;7.34;71.15;96389.56;6297092;28;20040;-70
2022/05/26 01:30:23;;;;;;;9.85;6.10;;;;;;;7.27;71.20;96394.28;6269166;28;20037;-69
2022/05/26 01:33:50;;;;;;;8.77;5.78;;;;;;;7.24;71.12;96398.88;6287985;28;20545;-69
2022/05/26 01:37:07;;;;;;;13.20;7.03;;;;;;;7.23;71.74;96391.97;6293391;28;20511;-70
2022/05/26 01:40:17;;;;;;;5.72;3.88;;;;;;;7.33;71.49;96393.09;6296700;28;20170;-69
2022/05/26 01:43:24;;;;;;;5.05;4.15;;;;;;;7.41;70.89;96393.47;6297064;28;20055;-70
2022/05/26 01:46:32;;;;;;;5.32;4.05;;;;;;;7.61;69.83;96393.16;6296884;28;20080;-69
2022/05/26 01:49:41;;;;;;;4.95;3.97;;;;;;;7.83;68.43;96378.72;6296817;28;20518;-69
2022/05/26 01:52:53;;;;;;;4.60;3.65;;;;;;;7.91;68.14;96371.22;6296425;28;20114;-70
2022/05/26 01:56:12;;;;;;;4.75;3.63;;;;;;;8.06;67.82;96377.28;6296400;28;20047;-69
2022/05/26 01:59:28;;;;;;;5.57;3.42;;;;;;;8.18;66.92;96378.28;6296481;28;20047;-69
2022/05/26 02:02:34;;;;;;;4.32;3.33;;;;;;;8.34;66.44;96371.13;6295106;28;20082;-70
2022/05/26 02:05:47;;;;;;;4.03;3.00;;;;;;;8.43;65.99;96364.50;6296074;28;20076;-69
2022/05/26 02:09:02;;;;;;;4.00;2.47;;;;;;;8.39;66.09;96358.63;6296154;28;20041;-69
2022/05/26 02:12:07;;;;;;;;;;;;;;;8.44;66.24;96361.78;6296407;28;20532;-69
2022/05/26 02:15:21;;;;;;;4.40;3.38;;;;;;;8.49;66.38;96362.34;6295909;28;19920;-69
2022/05/26 02:18:30;;;;;;;3.75;2.97;;;;;;;8.60;66.28;96366.84;6295795;28;20048;-69
2022/05/26 02:21:38;;;;;;;4.25;2.95;;;;;;;8.68;66.21;96358.50;6295662;28;20044;-69
2022/05/26 02:25:08;;;;;;;3.78;3.25;;;;;;;8.81;66.28;96362.00;6295526;28;20139;-69
2022/05/26 02:28:14;;;;;;;4.53;3.15;;;;;;;8.88;66.22;96350.16;6295524;28;20499;-69
2022/05/26 02:31:24;;;;;;;3.40;2.70;;;;;;;8.96;66.63;96368.84;6295286;28;20162;-69
2022/05/26 02:34:26;;;;;;;3.22;2.85;;;;;;;9.11;66.45;96366.16;6295494;28;20036;-70
2022/05/26 02:37:32;;;;;;;4.47;2.58;;;;;;;9.21;66.12;96362.81;6295322;28;20064;-68
2022/05/26 02:40:36;;;;;;;4.50;2.80;;;;;;;9.29;66.10;96364.91;6295236;28;20461;-69
2022/05/26 02:43:40;;;;;;;3.47;2.35;;;;;;;9.39;66.21;96365.13;6295319;28;20454;-69
2022/05/26 02:47:05;;;;;;;2.83;2.10;;;;;;;9.46;66.16;96360.31;6294990;28;20131;-69
2022/05/26 02:50:34;;;;;;;3.72;2.80;;;;;;;9.60;66.13;96368.09;6295749;28;20063;-69
2022/05/26 02:53:50;;;;;;;3.88;2.55;;;;;;;9.70;66.00;96369.09;6294656;28;20049;-70
2022/05/26 02:57:17;;;;;;;4.65;2.47;;;;;;;9.84;65.79;96362.91;6294728;28;20135;-69
2022/05/26 03:00:51;;;;;;;3.15;2.20;;;;;;;10.01;65.30;96361.72;6294909;28;20040;-71
2022/05/26 03:04:10;;;;;;;3.45;1.92;;;;;;;10.07;65.27;96362.09;6290786;28;20519;-69
2022/05/26 03:07:21;;;;;;;4.05;2.55;;;;;;;10.17;65.44;96372.81;6294816;28;20044;-69
2022/05/26 03:10:27;;;;;;;3.72;2.55;;;;;;;10.34;64.77;96375.13;6295258;28;20112;-70
2022/05/26 03:13:31;;;;;;;2.45;2.08;;;;;;;10.44;64.65;96369.19;6294922;28;20052;-69
2022/05/26 03:16:35;;;;;;;3.63;2.10;;;;;;;10.51;64.24;96365.16;6294815;28;20045;-69
2022/05/26 03:19:43;;;;;;;2.67;1.95;;;;;;;10.48;63.75;96366.22;6294674;28;20045;-69
2022/05/26 03:22:47;;;;;;;6.22;4.20;;;;;;;10.55;63.59;96377.13;6294406;28;20057;-72
2022/05/26 03:25:51;;;;;;;3.80;2.67;;;;;;;10.52;63.72;96372.09;6294472;28;20052;-69
2022/05/26 03:28:59;;;;;;;3.42;2.42;;;;;;;10.59;63.56;96372.47;6294648;28;20048;-67
2022/05/26 03:32:06;;;;;;;5.32;2.67;;;;;;;10.72;62.45;96366.22;6294796;28;20490;-69
2022/05/26 03:41:52;;;;;;;4.38;2.40;;;;;;;10.89;61.31;96369.41;6294853;28;20083;-70
2022/05/26 03:44:59;;;;;;;4.55;2.33;;;;;;;10.97;61.06;96372.31;6297130;28;20052;-71
2022/05/26 03:48:01;;;;;;;17.33;10.85;;;;;;;11.10;60.89;96382.78;6299310;28;20051;-70
2022/05/26 03:51:04;;;;;;;6.13;3.35;;;;;;;11.27;59.58;96390.25;6299523;28;20056;-70
2022/05/26 03:54:08;;;;;;;2.97;2.22;;;;;;;11.40;57.69;96374.34;6299348;28;20040;-69
2022/05/26 03:57:10;;;;;;;3.78;2.05;;;;;;;11.52;56.75;96386.59;6299351;28;20127;-70
2022/05/26 04:00:17;;;;;;;2.25;2.00;;;;;;;11.60;55.97;96392.09;6298808;28;20055;-70
2022/05/26 04:03:19;;;;;;;2.97;2.13;;;;;;;11.78;54.95;96383.75;6298806;28;20067;-71
2022/05/26 04:06:23;;;;;;;2.28;1.70;;;;;;;12.00;51.48;96381.16;6298909;28;20052;-70
2022/05/26 04:09:27;;;;;;;3.65;1.98;;;;;;;12.12;50.48;96380.19;6298971;28;20048;-70
2022/05/26 04:12:28;;;;;;;2.20;1.70;;;;;;;12.37;50.10;96375.59;6297044;28;20052;-70
2022/05/26 04:15:35;;;;;;;4.00;1.77;;;;;;;12.65;49.04;96363.63;6298860;28;20392;-73
2022/05/26 04:18:43;;;;;;;3.08;1.60;;;;;;;12.91;48.92;96355.38;6298717;28;20044;-72
2022/05/26 04:25:08;;;;;;;2.60;1.25;;;;;;;13.58;46.57;96375.34;6296879;28;20052;-70
2022/05/26 04:28:14;;;;;;;2.28;1.70;;;;;;;13.51;46.80;96363.66;6298415;28;20099;-70
2022/05/26 04:31:21;;;;;;;2.28;1.52;;;;;;;13.46;46.63;96359.56;6298388;28;20044;-70
2022/05/26 04:34:25;;;;;;;3.05;1.80;;;;;;;13.69;45.84;96370.00;6298150;28;20056;-70
2022/05/26 04:37:30;;;;;;;2.00;1.80;;;;;;;14.49;44.55;96374.50;6298347;28;20423;-70
2022/05/26 04:40:34;;;;;;;2.72;1.77;;;;;;;16.67;39.93;96369.38;6298141;28;20356;-69
2022/05/26 04:43:41;;;;;;;3.60;2.15;;;;;;;18.48;36.46;96353.75;6298061;28;20037;-70
2022/05/26 04:46:43;;;;;;;2.30;1.65;;;;;;;19.64;34.10;96354.59;6298325;28;20048;-70
2022/05/26 04:49:45;;;;;;;3.85;1.50;;;;;;;20.69;32.51;96349.13;6297742;28;20052;-69
2022/05/26 04:52:46;;;;;;;1.80;1.30;;;;;;;22.41;29.41;96351.22;6297030;28;20048;-70
2022/05/26 04:55:56;;;;;;;1.35;1.20;;;;;;;23.89;27.09;96347.22;6297585;28;20052;-69
2022/05/26 04:58:59;;;;;;;3.80;1.35;;;;;;;25.21;24.88;96364.22;6297888;28;20049;-69
2022/05/26 05:02:01;;;;;;;2.25;1.25;;;;;;;26.65;23.80;96358.16;6297775;28;20040;-69
2022/05/26 05:05:07;;;;;;;2.97;1.30;;;;;;;27.91;22.67;96356.63;6297726;28;20055;-69
2022/05/26 05:08:12;;;;;;;1.48;1.30;;;;;;;28.76;21.81;96361.38;6297756;28;20465;-69
2022/05/26 05:11:13;;;;;;;1.60;1.00;;;;;;;30.19;20.31;96370.59;6295672;28;20432;-69
2022/05/26 05:14:17;;;;;;;1.50;0.80;;;;;;;31.55;18.67;96372.94;6297088;28;20060;-69
2022/05/26 05:17:22;;;;;;;1.65;0.80;;;;;;;33.16;17.23;96367.75;6297405;28;20051;-69
2022/05/26 05:20:26;;;;;;;1.58;0.90;;;;;;;34.26;16.17;96364.72;6296561;28;20040;-69
2022/05/26 05:23:29;;;;;;;1.05;0.60;;;;;;;34.86;15.15;96375.19;6296677;28;20049;-70
2022/05/26 05:26:37;;;;;;;1.02;0.70;;;;;;;35.16;14.47;96370.97;6297135;28;20044;-68
2022/05/26 05:29:42;;;;;;;1.73;0.80;;;;;;;36.08;13.67;96376.63;6296814;28;20411;-69
2022/05/26 05:33:06;;;;;;;2.03;0.80;;;;;;;37.15;13.21;96372.03;6296796;28;20040;-68
2022/05/26 05:36:12;;;;;;;1.48;0.80;;;;;;;38.06;12.66;96365.16;6296662;28;20048;-68
2022/05/26 05:39:13;;;;;;;2.70;0.60;;;;;;;37.96;12.00;96366.09;6296956;28;20052;-69
2022/05/26 05:42:21;;;;;;;1.02;0.50;;;;;;;34.36;13.72;96356.56;6296395;28;20060;-70
2022/05/26 05:45:28;;;;;;;2.92;0.60;;;;;;;32.14;15.47;96348.91;6296605;28;20044;-71
2022/05/26 05:48:36;;;;;;;3.05;0.90;;;;;;;32.55;15.55;96352.22;6296598;28;20531;-73
2022/05/26 05:51:45;;;;;;;1.70;1.40;;;;;;;32.94;15.05;96357.63;6296716;28;20050;-73
2022/05/26 05:54:51;;;;;;;1.83;0.65;;;;;;;34.83;13.74;96356.59;6296433;28;20495;-69
2022/05/26 05:57:56;;;;;;;0.88;0.60;;;;;;;35.55;13.90;96356.81;6295263;28;20162;-68
2022/05/26 06:01:02;;;;;;;0.85;0.45;;;;;;;35.91;13.47;96365.09;6296174;28;20040;-70
2022/05/26 06:04:07;;;;;;;2.03;0.80;;;;;;;35.09;14.03;96353.97;6294969;28;20056;-69
2022/05/26 06:07:22;;;;;;;2.35;0.80;;;;;;;34.55;14.29;96348.75;6295320;28;20040;-69
2022/05/26 06:10:25;;;;;;;2.47;0.73;;;;;;;34.63;14.17;96345.56;6295325;28;20051;-69
2022/05/26 06:13:27;;;;;;;1.70;0.57;;;;;;;35.09;13.44;96340.31;6295398;28;20056;-68
2022/05/26 06:16:33;;;;;;;1.23;0.73;;;;;;;35.85;13.12;96350.59;6295767;28;20066;-68
2022/05/26 06:19:38;;;;;;;2.45;0.98;;;;;;;37.22;11.71;96354.16;6295841;28;20040;-69
2022/05/26 06:22:43;;;;;;;1.65;0.80;;;;;;;37.23;11.76;96352.25;6295099;28;20040;-69
2022/05/26 06:25:49;;;;;;;2.60;0.80;;;;;;;36.14;12.84;96359.09;6295580;28;20044;-69
2022/05/26 06:39:00;;;;;;;2.88;0.65;;;;;;;39.65;10.84;96361.44;6295568;28;20048;-71
2022/05/26 06:42:05;;;;;;;0.80;0.70;;;;;;;39.19;10.25;96364.00;6295042;28;20071;-68
2022/05/26 06:45:07;;;;;;;0.93;0.75;;;;;;;38.05;11.58;96357.19;6294824;28;20053;-70
2022/05/26 06:48:08;;;;;;;0.88;0.77;;;;;;;38.34;10.84;96355.28;6293747;28;20063;-69
2022/05/26 06:51:16;;;;;;;3.00;1.00;;;;;;;38.44;11.09;96342.56;6295351;28;20055;-69
2022/05/26 06:54:17;;;;;;;1.20;0.75;;;;;;;37.56;11.31;96341.63;6294943;28;20067;-69
2022/05/26 06:57:22;;;;;;;2.40;0.70;;;;;;;36.61;12.19;96335.19;6295008;28;20049;-68
2022/05/26 07:00:24;;;;;;;0.85;0.60;;;;;;;34.19;13.22;96329.41;6295349;28;20574;-68
2022/05/26 07:03:28;;;;;;;1.15;0.88;;;;;;;32.34;14.86;96325.78;6295102;28;20515;-69
2022/05/26 07:06:37;;;;;;;1.00;0.90;;;;;;;32.60;14.34;96321.53;6295136;28;20050;-69
2022/05/26 07:09:42;;;;;;;1.27;1.00;;;;;;;33.18;14.53;96325.50;6294846;28;20044;-69
2022/05/26 07:12:46;;;;;;;1.88;0.70;;;;;;;34.74;13.16;96319.94;6294930;28;20063;-69
2022/05/26 07:15:50;;;;;;;1.33;0.65;;;;;;;36.46;12.06;96330.53;6294939;28;20049;-68
2022/05/26 07:18:54;;;;;;;1.70;0.50;;;;;;;36.49;11.75;96331.91;6297207;28;20048;-69
2022/05/26 07:21:58;;;;;;;1.70;0.55;;;;;;;35.25;12.13;96314.66;6300410;28;20265;-69
2022/05/26 07:25:02;;;;;;;2.17;0.70;;;;;;;33.85;12.99;96313.31;6300180;28;20044;-69
2022/05/26 07:28:08;;;;;;;1.30;0.60;;;;;;;33.13;13.16;96305.56;6299624;28;20423;-69
2022/05/26 07:31:17;;;;;;;1.90;0.60;;;;;;;33.72;13.19;96300.13;6300409;28;20045;-69
2022/05/26 07:34:23;;;;;;;1.30;0.52;;;;;;;34.72;12.20;96293.94;6300041;28;20131;-69
2022/05/26 07:44:14;;;;;;;3.38;1.27;;;;;;;33.71;13.66;96291.09;6299846;28;20040;-70
2022/05/26 07:47:16;;;;;;;1.90;0.60;;;;;;;34.34;13.21;96294.03;6299190;28;20048;-68
2022/05/26 07:50:20;;;;;;;2.60;0.38;;;;;;;35.22;12.63;96312.47;6299171;28;20052;-70
2022/05/26 07:53:27;;;;;;;1.65;0.50;;;;;;;34.94;12.67;96293.75;6299430;28;20036;-69
2022/05/26 07:56:38;;;;;;;1.95;0.57;;;;;;;33.94;12.95;96289.09;6299449;28;20044;-69
2022/05/26 07:59:46;;;;;;;2.00;0.55;;;;;;;33.39;12.96;96280.19;6299166;28;20045;-70
2022/05/26 08:02:48;;;;;;;0.65;0.32;;;;;;;33.90;12.66;96277.88;6298740;28;20052;-68
2022/05/26 08:05:50;;;;;;;1.52;0.40;;;;;;;33.27;12.99;96276.81;6298817;28;20415;-69
2022/05/26 08:08:56;;;;;;;0.68;0.40;;;;;;;31.29;14.05;96290.06;6298503;28;20044;-69
2022/05/26 08:12:00;;;;;;;0.57;0.57;;;;;;;30.60;13.83;96290.91;6298713;28;20048;-69
2022/05/26 08:15:04;;;;;;;1.25;0.50;;;;;;;30.46;14.34;96291.41;6297822;28;20044;-69
2022/05/26 08:18:06;;;;;;;0.40;0.40;;;;;;;30.38;14.46;96285.31;6298606;28;20060;-69
2022/05/26 08:21:10;;;;;;;2.17;0.82;;;;;;;30.11;14.85;96279.50;6298978;28;20079;-69
2022/05/26 08:24:12;;;;;;;0.82;0.60;;;;;;;29.43;15.70;96286.28;6298833;28;20045;-69
2022/05/26 08:27:18;;;;;;;1.23;0.50;;;;;;;30.09;15.40;96280.81;6298495;28;20143;-68
2022/05/26 08:30:22;;;;;;;0.65;0.50;;;;;;;30.63;15.03;96281.44;6297147;28;20045;-68
2022/05/26 08:33:23;;;;;;;2.00;0.70;;;;;;;30.45;15.52;96270.75;6298279;28;20479;-68
2022/05/26 08:36:28;;;;;;;0.90;0.50;;;;;;;30.14;15.76;96278.22;6297678;28;20515;-68
2022/05/26 08:39:32;;;;;;;0.60;0.60;;;;;;;28.93;17.08;96275.78;6298580;28;20040;-68
2022/05/26 08:42:35;;;;;;;1.83;0.90;;;;;;;27.53;17.86;96281.84;6298413;28;20071;-70
2022/05/26 08:45:42;;;;;;;;;;;;;;;28.89;16.59;96282.69;6297891;28;20055;-69
2022/05/26 08:49:06;;;;;;;2.03;0.68;;;;;;;28.97;16.62;96282.38;6297970;28;19924;-69
2022/05/26 08:52:10;;;;;;;0.80;0.75;;;;;;;27.97;16.97;96266.53;6297909;28;20141;-68
2022/05/26 08:55:23;;;;;;;2.30;0.90;;;;;;;27.31;17.10;96270.59;6298060;28;20051;-70
2022/05/26 08:58:33;;;;;;;0.80;0.70;;;;;;;25.83;17.99;96260.66;6298296;28;20062;-68
2022/05/26 09:01:34;;;;;;;2.25;0.70;;;;;;;25.95;18.70;96250.88;6297602;28;20143;-68
2022/05/26 09:04:38;;;;;;;0.60;0.60;;;;;;;25.94;18.46;96251.94;6297762;28;20044;-69
2022/05/26 09:14:48;;;;;;;0.95;0.60;;;;;;;25.42;18.97;96215.09;6297363;28;20044;-69
2022/05/26 09:17:56;;;;;;;0.90;0.80;;;;;;;26.12;18.67;96242.34;6297333;28;20051;-69
2022/05/26 09:21:29;;;;;;;1.77;0.80;;;;;;;26.25;18.61;96247.69;6297079;28;20041;-68
2022/05/26 09:24:39;;;;;;;0.75;0.60;;;;;;;26.16;18.46;96249.78;6297040;28;20040;-68
2022/05/26 09:27:50;;;;;;;1.15;0.70;;;;;;;25.94;19.34;96243.03;6296573;28;20438;-69
2022/05/26 09:31:18;;;;;;;1.42;0.50;;;;;;;25.45;19.74;96237.06;6295742;28;20128;-70
2022/05/26 09:34:26;;;;;;;0.70;0.60;;;;;;;25.28;19.64;96233.97;6296498;28;20413;-70
2022/05/26 09:37:48;;;;;;;1.10;0.95;;;;;;;26.01;19.62;96245.69;6296772;28;20048;-70
2022/05/26 09:40:50;;;;;;;0.50;0.50;;;;;;;27.07;18.42;96223.59;6295802;28;20045;-70
2022/05/26 09:43:58;;;;;;;2.50;1.02;;;;;;;28.67;17.24;96222.00;6296115;28;20519;-69
2022/05/26 09:47:18;;;;;;;2.05;0.90;;;;;;;29.17;17.39;96227.13;6296462;28;20522;-68
2022/05/26 09:50:38;;;;;;;2.90;0.70;;;;;;;29.38;17.16;96229.25;6295782;28;20094;-69
2022/05/26 09:53:47;;;;;;;0.93;0.55;;;;;;;29.71;16.56;96233.31;6295242;28;20053;-68
2022/05/26 09:56:50;;;;;;;0.75;0.70;;;;;;;29.35;16.82;96224.31;6296055;28;20044;-69
2022/05/26 09:59:54;;;;;;;1.00;0.60;;;;;;;28.82;17.40;96230.53;6295184;28;20083;-69
2022/05/26 10:03:02;;;;;;;1.10;0.60;;;;;;;28.17;18.20;96229.25;6296098;28;20045;-69
2022/05/26 10:06:25;;;;;;;0.95;0.93;;;;;;;27.95;18.63;96225.34;6296102;28;20046;-69
2022/05/26 10:09:51;;;;;;;0.88;0.75;;;;;;;27.71;19.25;96217.03;6295975;28;20044;-69
2022/05/26 10:13:11;;;;;;;0.80;0.60;;;;;;;26.99;19.40;96215.75;6295763;28;20052;-69
2022/05/26 10:16:25;;;;;;;1.27;0.60;;;;;;;27.62;19.56;96207.56;6295518;28;20048;-68
2022/05/26 10:19:44;;;;;;;2.08;1.45;;;;;;;28.29;18.71;96210.38;6295628;28;20048;-68
2022/05/26 10:23:07;;;;;;;1.08;0.90;;;;;;;28.26;18.39;96226.25;6294347;28;20483;-68
2022/05/26 10:26:41;;;;;;;0.95;0.70;;;;;;;28.69;18.11;96222.59;6295451;28;20153;-69
2022/05/26 10:29:59;;;;;;;1.42;0.68;;;;;;;29.78;17.09;96217.78;6295460;28;20045;-69
2022/05/26 10:33:08;;;;;;;0.60;0.50;;;;;;;29.25;17.07;96224.06;6295645;28;20135;-67
2022/05/26 10:36:27;;;;;;;3.33;0.60;;;;;;;28.94;17.18;96225.16;6295507;28;20048;-68
2022/05/26 10:39:56;;;;;;;2.15;0.80;;;;;;;28.22;18.32;96209.63;6295465;28;20040;-69
2022/05/26 10:43:13;;;;;;;1.50;0.50;;;;;;;28.36;17.97;96218.41;6295190;28;20044;-69
2022/05/26 10:46:29;;;;;;;2.42;1.02;;;;;;;29.17;17.42;96221.69;6294399;28;20071;-68
2022/05/26 10:50:01;;;;;;;1.40;0.95;;;;;;;29.39;17.36;96227.41;6294699;28;20086;-71
2022/05/26 10:53:44;;;;;;;3.28;2.00;;;;;;;29.87;17.26;96220.94;6292310;28;20157;-71
2022/05/26 10:57:02;;;;;;;2.35;1.83;;;;;;;30.78;16.21;96232.88;6288112;28;20523;-68
2022/05/26 11:00:11;;;;;;;5.00;2.05;;;;;;;30.81;15.88;96237.84;6295238;28;20040;-69
2022/05/26 11:03:28;;;;;;;4.80;2.50;;;;;;;29.92;16.78;96240.88;6295427;28;20044;-69
2022/05/26 11:06:38;;;;;;;6.03;2.30;;;;;;;28.73;17.47;96232.72;6295354;28;20037;-68
2022/05/26 11:09:53;;;;;;;6.75;2.50;;;;;;;28.49;17.50;96245.34;6294929;28;20496;-69
2022/05/26 11:13:08;;;;;;;3.33;1.85;;;;;;;29.64;17.03;96240.72;6294544;28;20044;-68
2022/05/26 11:19:59;;;;;;;5.32;1.88;;;;;;;30.17;16.13;96250.59;6294922;28;20049;-69
2022/05/26 11:23:04;;;;;;;2.83;1.63;;;;;;;30.29;16.32;96256.88;6295067;28;20410;-68
2022/05/26 11:26:25;;;;;;;8.15;5.03;;;;;;;30.45;15.88;96254.47;6294861;28;20055;-68
2022/05/26 11:29:34;;;;;;;6.60;2.25;;;;;;;29.98;16.06;96250.75;6294536;28;20416;-68
2022/05/26 11:36:34;;;;;;;7.63;1.30;;;;;;;28.51;17.50;96245.13;6294526;28;20431;-68
2022/05/26 11:39:42;;;;;;;2.15;0.95;;;;;;;27.76;18.40;96252.31;6294302;28;20056;-68
2022/05/26 11:42:45;;;;;;;2.92;1.00;;;;;;;26.97;19.44;96242.16;6294512;28;20127;-68
2022/05/26 11:45:52;;;;;;;3.83;1.02;;;;;;;26.17;20.06;96246.03;6294566;28;20041;-67
2022/05/26 11:48:58;;;;;;;1.77;1.17;;;;;;;25.50;20.66;96239.13;6294457;28;20496;-68
2022/05/26 11:52:07;;;;;;;3.35;0.70;;;;;;;24.90;20.82;96233.69;6294471;28;20415;-70
2022/05/26 11:55:25;;;;;;;4.90;1.10;;;;;;;24.38;21.91;96229.81;6294267;28;20143;-69
2022/05/26 11:58:31;;;;;;;3.92;0.98;;;;;;;23.83;22.39;96227.06;6294382;28;20049;-69
2022/05/26 12:01:36;;;;;;;1.83;1.00;;;;;;;23.51;22.55;96225.81;6292704;28;20049;-68
2022/05/26 12:04:41;;;;;;;1.77;1.08;;;;;;;23.15;22.89;96231.34;6295364;28;20057;-70
2022/05/26 12:07:49;;;;;;;1.55;1.00;;;;;;;22.80;23.02;96232.03;6299068;28;20507;-69
2022/05/26 12:11:00;;;;;;;2.25;1.13;;;;;;;22.62;23.32;96234.34;6298319;28;20419;-68
2022/05/26 12:14:05;;;;;;;3.58;1.60;;;;;;;22.56;23.45;96230.56;6298155;28;20131;-69
2022/05/26 12:17:33;;;;;;;4.32;1.25;;;;;;;22.60;23.72;96228.31;6298236;28;20036;-69
2022/05/26 12:20:38;;;;;;;2.75;1.75;;;;;;;22.57;23.60;96226.03;6298339;28;20052;-69
2022/05/26 12:23:42;;;;;;;3.47;1.98;;;;;;;22.99;23.35;96219.03;6298085;28;20047;-68
2022/05/26 12:26:55;;;;;;;3.75;2.17;;;;;;;23.60;23.02;96216.59;6298304;28;20051;-69
2022/05/26 12:29:56;;;;;;;4.85;1.65;;;;;;;23.64;22.47;96212.50;6298412;28;20082;-68
2022/05/26 12:33:09;;;;;;;3.60;1.60;;;;;;;23.44;22.94;96216.88;6298004;28;20037;-68
2022/05/26 12:36:16;;;;;;;4.55;1.45;;;;;;;23.60;22.67;96216.59;6298139;28;20048;-69
2022/05/26 12:39:43;;;;;;;3.85;2.17;;;;;;;23.94;22.37;96212.25;6297797;28;20066;-69
2022/05/26 12:43:19;;;;;;;5.88;1.63;;;;;;;24.19;22.39;96221.47;6297740;28;20105;-68
2022/05/26 12:46:39;;;;;;;5.43;1.80;;;;;;;23.83;22.97;96212.81;6293288;28;20056;-69
2022/05/26 12:49:59;;;;;;;4.88;2.00;;;;;;;23.42;23.75;96216.28;6297693;28;20052;-69
2022/05/26 12:53:12;;;;;;;3.08;1.55;;;;;;;23.37;24.08;96216.03;6297861;28;20041;-68
2022/05/26 12:56:37;;;;;;;6.85;1.88;;;;;;;23.38;23.92;96204.25;6297118;28;20048;-69
2022/05/26 12:59:42;;;;;;;2.58;1.60;;;;;;;23.15;24.31;96189.22;6297617;28;20036;-70
2022/05/26 13:02:48;;;;;;;5.07;2.03;;;;;;;23.00;24.90;96199.22;6297098;28;20052;-69
2022/05/26 13:05:58;;;;;;;5.10;1.85;;;;;;;22.83;25.01;96199.44;6297197;28;20055;-69
2022/05/26 13:09:13;;;;;;;4.38;1.63;;;;;;;22.75;24.77;96206.81;6296192;28;20048;-68
2022/05/26 13:12:25;;;;;;;4.82;1.98;;;;;;;22.76;24.71;96203.94;6298592;28;20186;-69
2022/05/26 13:15:31;;;;;;;3.28;2.00;;;;;;;22.88;24.61;96196.19;6296982;28;20053;-67
2022/05/26 13:18:36;;;;;;;3.53;1.95;;;;;;;22.97;24.77;96194.25;6297019;28;20045;-69
2022/05/26 13:21:49;;;;;;;2.20;1.67;;;;;;;22.98;24.76;96190.53;6297065;28;20047;-69
2022/05/26 13:24:56;;;;;;;4.65;2.30;;;;;;;22.85;24.99;96186.69;6296625;28;20056;-69
2022/05/26 13:28:08;;;;;;;6.07;2.00;;;;;;;22.76;24.95;96187.00;6297030;28;20032;-69
2022/05/26 13:34:52;;;;;;;3.72;1.55;;;;;;;22.13;25.26;96181.38;6311921;28;20056;-68
2022/05/26 13:37:53;;;;;;;6.97;1.15;;;;;;;21.81;25.80;96179.97;6296126;28;20526;-69
2022/05/26 13:41:02;;;;;;;2.50;1.05;;;;;;;21.53;25.99;96176.09;6296455;28;20044;-69
2022/05/26 13:44:09;;;;;;;2.60;1.15;;;;;;;21.14;26.31;96164.78;6296713;28;20040;-69
2022/05/26 13:47:12;;;;;;;1.92;1.05;;;;;;;20.95;26.69;96161.63;6295913;28;20044;-69
2022/05/26 13:50:13;;;;;;;1.03;0.77;;;;;;;21.04;26.59;96157.03;6296804;28;20040;-69
2022/05/26 13:53:17;;;;;;;4.43;0.90;;;;;;;21.17;26.33;96164.41;6296074;28;20438;-69
2022/05/26 13:56:47;;;;;;;1.55;0.77;;;;;;;21.26;26.30;96160.66;6295926;28;20045;-69
2022/05/26 13:59:56;;;;;;;1.45;0.95;;;;;;;21.02;26.13;96151.84;6296071;28;20047;-69
2022/05/26 14:03:03;;;;;;;1.27;0.70;;;;;;;20.80;26.57;96166.09;6294972;28;20041;-70
2022/05/26 14:06:35;;;;;;;2.60;0.77;;;;;;;20.68;26.33;96163.03;6296045;28;20047;-68
2022/05/26 14:09:38;;;;;;;2.45;0.90;;;;;;;20.48;26.54;96159.97;6295713;28;20048;-68
2022/05/26 14:12:44;;;;;;;6.40;1.77;;;;;;;20.38;26.77;96154.03;6296189;28;20051;-70
2022/05/26 14:16:10;;;;;;;1.20;1.05;;;;;;;20.30;27.00;96167.47;6295167;28;20068;-69
2022/05/26 14:19:23;;;;;;;2.53;1.20;;;;;;;20.46;27.12;96172.69;6295276;28;20044;-69
2022/05/26 14:22:30;;;;;;;3.92;1.30;;;;;;;20.44;26.66;96165.84;6295508;28;20214;-68
2022/05/26 14:25:37;;;;;;;3.75;1.38;;;;;;;20.13;27.23;96169.41;6294339;28;20488;-69
2022/05/26 14:28:46;;;;;;;3.67;1.25;;;;;;;19.96;27.46;96161.50;6295095;28;20041;-69
2022/05/26 14:32:17;;;;;;;5.60;1.40;;;;;;;20.08;27.19;96175.28;6295409;28;20052;-69
2022/05/26 14:35:20;;;;;;;4.97;1.52;;;;;;;20.16;27.53;96171.72;6294982;28;20495;-69
2022/05/26 14:38:27;;;;;;;4.60;1.48;;;;;;;20.04;27.17;96165.97;6295462;28;20053;-68
2022/05/26 14:41:32;;;;;;;6.97;1.83;;;;;;;19.70;27.48;96172.47;6295112;28;20051;-69
2022/05/26 14:44:39;;;;;;;3.03;1.17;;;;;;;19.32;27.90;96174.06;6295300;28;20044;-70
2022/05/26 14:47:49;;;;;;;2.40;1.30;;;;;;;19.01;27.84;96176.63;6295107;28;20060;-69
2022/05/26 14:50:54;;;;;;;5.13;1.27;;;;;;;18.65;28.37;96181.44;6294964;28;20047;-70
2022/05/26 14:57:21;;;;;;;4.20;1.60;;;;;;;18.34;29.37;96185.59;6295426;28;20446;-69
2022/05/26 15:00:31;;;;;;;2.10;1.45;;;;;;;18.23;29.38;96172.59;6294947;28;20068;-69
2022/05/26 15:03:37;;;;;;;2.42;1.42;;;;;;;18.19;29.52;96192.56;6294886;28;20059;-69
2022/05/26 15:06:45;;;;;;;4.55;1.50;;;;;;;18.04;29.72;96175.56;6294531;28;20055;-69
2022/05/26 15:09:50;;;;;;;1.98;0.98;;;;;;;18.02;29.70;96205.00;6294683;28;20041;-69
2022/05/26 15:12:54;;;;;;;1.67;1.10;;;;;;;18.12;30.22;96207.53;6292536;28;20422;-69
2022/05/26 15:15:56;;;;;;;3.17;1.35;;;;;;;18.14;29.81;96200.19;6294381;28;20514;-69
2022/05/26 15:19:06;;;;;;;1.92;1.60;;;;;;;18.04;29.98;96212.84;6294547;28;20427;-68
2022/05/26 15:22:14;;;;;;;2.65;1.67;;;;;;;17.94;29.53;96212.94;6295184;28;20052;-70
2022/05/26 15:25:18;;;;;;;2.97;1.90;;;;;;;17.70;29.86;96208.34;6294950;28;20138;-70
2022/05/26 15:28:22;;;;;;;3.13;1.42;;;;;;;17.55;30.09;96212.59;6294706;28;20045;-70
2022/05/26 15:31:26;;;;;;;1.98;1.10;;;;;;;17.32;30.23;96210.47;6295013;28;20056;-71
2022/05/26 15:34:31;;;;;;;1.23;0.90;;;;;;;17.21;30.17;96213.41;6294760;28;20052;-69
2022/05/26 15:37:32;;;;;;;2.63;1.00;;;;;;;17.08;30.40;96218.31;6294455;28;20423;-70
2022/05/26 15:40:38;;;;;;;2.67;1.23;;;;;;;16.93;30.48;96216.22;6298877;28;20052;-69
2022/05/26 15:43:46;;;;;;;1.55;0.77;;;;;;;16.69;31.05;96216.00;6299809;28;20041;-72